Time;durP1;ratioP1;P1;durP2;ratioP2;P2;SDS_P1;SDS_P2;PMS_P1;PMS_P2;Temp;Humidity;BMP_temperature;BMP_pressure;BME280_temperature;BME280_humidity;BME280_pressure;Samples;Min_cycle;Max_cycle;Signal;HPM_P1;HPM_P2
2021/11/18 00:02:15;;;;;;;28.10;13.57;;;;;;;-4.17;100.00;101131.68;1729527;83;21021;-71
2021/11/18 00:04:42;;;;;;;32.53;14.20;;;;;;;-4.18;100.00;101135.22;1720465;83;21080;-71
2021/11/18 00:07:09;;;;;;;26.30;12.30;;;;;;;-4.24;100.00;101133.19;1697845;83;21450;-70
2021/11/18 00:09:36;;;;;;;27.93;12.53;;;;;;;-4.28;100.00;101135.53;1720270;83;21033;-69
2021/11/18 00:12:06;;;;;;;26.97;12.60;;;;;;;-4.33;100.00;101141.41;1697844;82;21029;-71
2021/11/18 00:14:33;;;;;;;28.50;11.83;;;;;;;-4.37;100.00;101141.11;1720141;83;21060;-70
2021/11/18 00:17:00;;;;;;;25.63;12.70;;;;;;;-4.39;100.00;101136.34;1698021;83;21050;-69
2021/11/18 00:19:27;;;;;;;24.80;11.73;;;;;;;-4.41;100.00;101132.42;1720057;83;21041;-69
2021/11/18 00:21:54;;;;;;;26.40;12.03;;;;;;;-4.45;100.00;101128.13;1698172;83;21510;-69
2021/11/18 00:24:21;;;;;;;24.73;12.07;;;;;;;-4.44;100.00;101129.02;1697665;83;21012;-70
2021/11/18 00:26:54;;;;;;;22.43;11.63;;;;;;;-4.42;100.00;101123.23;1720450;83;21044;-69
2021/11/18 00:29:17;;;;;;;26.87;11.20;;;;;;;-4.40;100.00;101124.04;1697863;83;21545;-70
2021/11/18 00:31:44;;;;;;;22.83;11.23;;;;;;;-4.38;100.00;101123.53;1720429;83;20993;-69
2021/11/18 00:34:11;;;;;;;24.77;11.93;;;;;;;-4.35;100.00;101130.04;1720165;83;20998;-70
2021/11/18 00:36:40;;;;;;;24.33;11.90;;;;;;;-4.33;100.00;101121.61;1697979;83;22175;-70
2021/11/18 00:39:07;;;;;;;27.03;11.63;;;;;;;-4.31;100.00;101122.88;1720101;83;21069;-70
2021/11/18 00:41:34;;;;;;;26.07;12.17;;;;;;;-4.30;100.00;101125.48;1720236;83;21526;-69
2021/11/18 00:44:02;;;;;;;26.73;12.30;;;;;;;-4.30;100.00;101120.20;1719977;83;21037;-69
2021/11/18 00:46:32;;;;;;;26.50;12.93;;;;;;;-4.28;100.00;101113.55;1720177;83;21065;-69
2021/11/18 00:48:59;;;;;;;26.53;12.10;;;;;;;-4.28;100.00;101115.72;1720162;83;21538;-69
2021/11/18 00:51:26;;;;;;;22.53;11.30;;;;;;;-4.27;100.00;101114.79;1720086;83;21021;-70
2021/11/18 00:53:56;;;;;;;23.80;10.93;;;;;;;-4.27;100.00;101114.79;1719969;83;21546;-70
2021/11/18 00:56:24;;;;;;;24.43;12.23;;;;;;;-4.29;100.00;101117.94;1678379;83;21029;-70
2021/11/18 00:58:54;;;;;;;25.67;11.00;;;;;;;-4.30;100.00;101114.02;1675035;85;21081;-68
2021/11/18 01:01:23;;;;;;;21.37;10.40;;;;;;;-4.31;100.00;101116.28;1686772;84;20998;-69
2021/11/18 01:03:51;;;;;;;25.23;12.13;;;;;;;-4.32;100.00;101106.62;1729709;81;21081;-69
2021/11/18 01:06:18;;;;;;;26.40;11.70;;;;;;;-4.33;100.00;101116.79;1727753;83;21085;-70
2021/11/18 01:08:46;;;;;;;24.70;11.60;;;;;;;-4.37;100.00;101115.14;1759520;81;21498;-69
2021/11/18 01:11:21;;;;;;;25.83;11.10;;;;;;;-4.40;100.00;101113.01;1707641;83;21523;-70
2021/11/18 01:13:49;;;;;;;23.83;11.47;;;;;;;-4.42;100.00;101116.62;1646497;86;21070;-70
2021/11/18 01:16:23;;;;;;;23.53;10.93;;;;;;;-4.40;100.00;101117.44;1668886;86;21602;-69
2021/11/18 01:18:50;;;;;;;23.85;10.93;;;;;;;-4.39;100.00;101114.75;1669249;86;21026;-68
2021/11/18 01:21:17;;;;;;;23.83;10.83;;;;;;;-4.36;100.00;101114.23;1669302;86;20998;-69
2021/11/18 01:23:46;;;;;;;26.13;11.13;;;;;;;-4.36;100.00;101112.92;1669492;86;21046;-69
2021/11/18 01:26:16;;;;;;;22.67;10.80;;;;;;;-4.36;100.00;101105.00;1669019;86;21101;-69
2021/11/18 01:28:43;;;;;;;25.03;11.53;;;;;;;-4.41;100.00;101100.74;1669238;86;20998;-69
2021/11/18 01:31:10;;;;;;;24.73;11.23;;;;;;;-4.45;100.00;101099.09;1668980;86;21053;-70
2021/11/18 01:33:38;;;;;;;25.80;11.20;;;;;;;-4.48;100.00;101103.61;1669167;86;21092;-70
2021/11/18 01:36:05;;;;;;;26.73;10.93;;;;;;;-4.53;100.00;101101.13;1669200;86;21085;-69
2021/11/18 01:38:33;;;;;;;22.83;10.80;;;;;;;-4.54;100.00;101115.70;1669048;85;21029;-70
2021/11/18 01:41:10;;;;;;;23.67;11.03;;;;;;;-4.59;100.00;101103.95;1668897;86;21070;-70
2021/11/18 01:43:43;;;;;;;26.90;11.53;;;;;;;-4.61;100.00;101109.27;1669073;86;21582;-70
2021/11/18 01:46:15;;;;;;;22.27;10.80;;;;;;;-4.63;100.00;101110.25;1669258;86;21025;-69
2021/11/18 01:48:48;;;;;;;22.95;10.80;;;;;;;-4.70;100.00;101110.03;1669261;86;21079;-70
2021/11/18 01:51:16;;;;;;;23.07;11.10;;;;;;;-4.79;100.00;101101.48;1668537;86;21037;-69
2021/11/18 01:53:45;;;;;;;22.73;10.43;;;;;;;-4.85;100.00;101107.39;1669224;86;21042;-69
2021/11/18 01:56:26;;;;;;;23.90;10.93;;;;;;;-4.91;100.00;101111.08;1654413;86;21085;-69
2021/11/18 01:59:15;;;;;;;24.83;11.33;;;;;;;-4.94;100.00;101115.13;1648762;87;21062;-69
2021/11/18 02:01:47;;;;;;;24.17;11.63;;;;;;;-4.98;100.00;101102.48;1635051;86;21537;-70
2021/11/18 02:04:18;;;;;;;22.20;11.27;;;;;;;-4.99;100.00;101103.41;1594256;90;21128;-70
2021/11/18 02:07:06;;;;;;;23.93;11.80;;;;;;;-4.96;100.00;101106.40;1632327;88;21083;-70
2021/11/18 02:09:42;;;;;;;24.53;11.43;;;;;;;-4.96;100.00;101105.97;1616160;88;21067;-70
2021/11/18 02:12:12;;;;;;;;;;;;;;;-4.94;100.00;101097.98;1623531;88;21116;-70
2021/11/18 02:14:39;;;;;;;25.77;11.43;;;;;;;-4.92;100.00;101092.23;1621062;88;20105;-70
2021/11/18 02:17:09;;;;;;;25.77;11.77;;;;;;;-4.89;100.00;101086.83;1621079;88;21099;-69
2021/11/18 02:19:43;;;;;;;24.63;10.97;;;;;;;-4.86;100.00;101093.34;1621090;88;21060;-70
2021/11/18 02:22:10;;;;;;;20.87;11.00;;;;;;;-4.83;100.00;101098.53;1599234;88;21033;-70
2021/11/18 02:24:50;;;;;;;24.60;11.10;;;;;;;-4.79;100.00;101091.39;1599323;90;21053;-69
2021/11/18 02:27:21;;;;;;;23.87;11.03;;;;;;;-4.78;100.00;101098.37;1599402;90;21649;-70
2021/11/18 02:29:50;;;;;;;24.90;11.13;;;;;;;-4.74;100.00;101095.22;1599416;90;21144;-70
2021/11/18 02:32:21;;;;;;;21.47;10.60;;;;;;;-4.74;100.00;101092.11;1599239;90;21093;-69
2021/11/18 02:35:03;;;;;;;25.48;11.30;;;;;;;-4.73;100.00;101098.24;1599650;90;21042;-70
2021/11/18 02:37:32;;;;;;;22.60;10.80;;;;;;;-4.74;100.00;101093.89;1599186;90;21017;-69
2021/11/18 02:39:59;;;;;;;27.23;12.63;;;;;;;-4.74;100.00;101092.58;1599262;90;21018;-70
2021/11/18 02:42:26;;;;;;;29.40;12.93;;;;;;;-4.74;100.00;101089.47;1599414;90;21030;-69
2021/11/18 02:44:53;;;;;;;27.50;12.73;;;;;;;-4.72;100.00;101087.64;1599211;90;21126;-69
2021/11/18 02:47:21;;;;;;;25.67;12.43;;;;;;;-4.69;100.00;101088.88;1599554;90;21565;-71
2021/11/18 02:49:51;;;;;;;27.70;13.27;;;;;;;-4.67;100.00;101089.69;1599397;90;21105;-70
2021/11/18 02:52:30;;;;;;;26.50;12.40;;;;;;;-4.65;100.00;101093.60;1599430;90;21021;-69
2021/11/18 02:55:00;;;;;;;24.87;11.93;;;;;;;-4.66;100.00;101094.50;1604642;85;21098;-69
2021/11/18 02:57:28;;;;;;;27.63;13.03;;;;;;;-4.66;100.00;101094.50;1630545;88;21078;-70
2021/11/18 02:59:55;;;;;;;24.37;11.90;;;;;;;-4.66;100.00;101092.72;1634705;88;21101;-69
2021/11/18 03:02:24;;;;;;;25.27;12.63;;;;;;;-4.67;100.00;101095.43;1630228;88;21026;-69
2021/11/18 03:04:52;;;;;;;23.30;11.67;;;;;;;-4.69;100.00;101090.63;1620801;87;21105;-70
2021/11/18 03:07:19;;;;;;;24.73;12.23;;;;;;;-4.71;100.00;101098.63;1632208;88;21097;-69
2021/11/18 03:09:46;;;;;;;28.27;12.90;;;;;;;-4.73;100.00;101085.05;1632092;88;21106;-70
2021/11/18 03:12:15;;;;;;;27.40;13.43;;;;;;;-4.75;100.00;101095.65;1632593;88;21100;-70
2021/11/18 03:14:42;;;;;;;29.43;13.73;;;;;;;-4.76;100.00;101100.53;1632310;88;21538;-69
2021/11/18 03:17:09;;;;;;;28.00;13.70;;;;;;;-4.77;100.00;101098.33;1632368;88;21547;-70
2021/11/18 03:19:41;;;;;;;26.30;12.73;;;;;;;-4.78;100.00;101095.30;1613993;89;21100;-70
2021/11/18 03:22:08;;;;;;;26.83;13.00;;;;;;;-4.79;100.00;101092.24;1617704;89;21116;-68
2021/11/18 03:24:36;;;;;;;25.93;12.70;;;;;;;-4.80;100.00;101088.33;1617968;89;21084;-70
2021/11/18 03:27:05;;;;;;;28.27;13.40;;;;;;;-4.83;100.00;101089.30;1618212;89;21017;-70
2021/11/18 03:29:32;;;;;;;28.17;13.43;;;;;;;-4.86;100.00;101088.06;1617974;89;21100;-71
2021/11/18 03:32:00;;;;;;;27.07;13.57;;;;;;;-4.87;100.00;101085.04;1618003;89;21059;-69
2021/11/18 03:34:29;;;;;;;28.73;14.07;;;;;;;-4.88;100.00;101089.04;1617717;89;21148;-70
2021/11/18 03:36:56;;;;;;;30.17;15.00;;;;;;;-4.88;100.00;101087.72;1618115;89;21620;-70
2021/11/18 03:39:24;;;;;;;31.70;14.03;;;;;;;-4.89;100.00;101092.11;1617806;89;21025;-70
2021/11/18 03:41:56;;;;;;;29.37;13.60;;;;;;;-4.88;100.00;101082.44;1618058;89;21076;-70
2021/11/18 03:44:24;;;;;;;26.60;13.37;;;;;;;-4.88;100.00;101079.34;1596676;89;21079;-69
2021/11/18 03:46:57;;;;;;;28.63;13.73;;;;;;;-4.87;100.00;101080.19;1618076;87;21621;-70
2021/11/18 03:49:25;;;;;;;33.53;14.70;;;;;;;-4.87;100.00;101078.88;1617994;89;21061;-69
2021/11/18 03:51:54;;;;;;;48.87;21.80;;;;;;;-4.89;100.00;101084.66;1618246;89;21529;-70
2021/11/18 03:54:22;;;;;;;33.17;15.67;;;;;;;-4.91;100.00;101077.25;1618035;89;21092;-70
2021/11/18 03:56:50;;;;;;;34.57;17.37;;;;;;;-4.95;100.00;101075.16;1617487;87;21033;-70
2021/11/18 03:59:23;;;;;;;30.73;15.43;;;;;;;-4.99;100.00;101080.98;1718488;83;21005;-69
2021/11/18 04:01:52;;;;;;;35.63;16.27;;;;;;;-5.02;100.00;101086.34;1694813;84;20986;-70
2021/11/18 04:04:25;;;;;;;36.03;15.40;;;;;;;-5.06;100.00;101082.09;1700209;83;21065;-70
2021/11/18 04:06:52;;;;;;;30.30;15.03;;;;;;;-5.09;100.00;101084.80;1692743;85;21510;-70
2021/11/18 04:09:19;;;;;;;29.57;14.10;;;;;;;-5.12;100.00;101081.40;1695525;85;21367;-69
2021/11/18 04:11:49;;;;;;;29.67;14.23;;;;;;;-5.16;100.00;101081.48;1695464;85;21122;-70
2021/11/18 04:14:17;;;;;;;29.87;13.30;;;;;;;-5.17;100.00;101083.73;1695501;85;20998;-70
2021/11/18 04:16:44;;;;;;;26.73;13.00;;;;;;;-5.19;100.00;101088.19;1695629;85;21005;-70
2021/11/18 04:19:14;;;;;;;32.77;14.77;;;;;;;-5.22;100.00;101077.72;1695220;85;21074;-70
2021/11/18 04:21:43;;;;;;;29.13;13.87;;;;;;;-5.23;100.00;101080.40;1695556;85;21061;-70
2021/11/18 04:24:13;;;;;;;30.73;15.13;;;;;;;-5.25;100.00;101077.80;1695468;83;21038;-70
2021/11/18 04:26:41;;;;;;;30.07;14.67;;;;;;;-5.26;100.00;101076.09;1695473;85;21069;-70
2021/11/18 04:29:08;;;;;;;30.93;14.00;;;;;;;-5.28;100.00;101071.75;1695443;85;21518;-70
2021/11/18 04:31:37;;;;;;;29.67;14.80;;;;;;;-5.32;100.00;101070.98;1695503;85;21133;-70
2021/11/18 04:34:09;;;;;;;29.03;14.43;;;;;;;-5.32;100.00;101071.45;1695455;83;21049;-70
2021/11/18 04:36:38;;;;;;;29.10;14.70;;;;;;;-5.33;100.00;101061.33;1670945;85;21078;-70
2021/11/18 04:39:07;;;;;;;25.30;13.57;;;;;;;-5.34;100.00;101071.48;1695434;84;21026;-69
2021/11/18 04:41:34;;;;;;;28.33;13.20;;;;;;;-5.35;100.00;101075.02;1695539;85;21069;-71
2021/11/18 04:44:01;;;;;;;33.13;14.37;;;;;;;-5.35;100.00;101076.34;1695850;85;21495;-70
2021/11/18 04:46:28;;;;;;;34.37;14.20;;;;;;;-5.36;100.00;101078.58;1695384;83;21025;-70
2021/11/18 04:48:57;;;;;;;28.93;14.17;;;;;;;-5.37;100.00;101076.84;1695363;85;21005;-70
2021/11/18 04:51:25;;;;;;;27.10;14.37;;;;;;;-5.37;100.00;101083.43;1695552;84;21021;-69
2021/11/18 04:53:52;;;;;;;28.60;13.63;;;;;;;-5.36;100.00;101086.03;1695423;85;21523;-71
2021/11/18 04:56:21;;;;;;;26.83;13.27;;;;;;;-5.35;100.00;101080.29;1695391;84;21002;-70
2021/11/18 04:58:48;;;;;;;28.53;14.53;;;;;;;-5.34;100.00;101084.20;1711733;83;21068;-70
2021/11/18 05:01:16;;;;;;;29.73;13.80;;;;;;;-5.31;100.00;101081.06;1721441;81;21064;-69
2021/11/18 05:03:43;;;;;;;30.70;15.17;;;;;;;-5.31;100.00;101081.95;1721394;82;21092;-70
2021/11/18 05:06:10;;;;;;;29.63;14.33;;;;;;;-5.30;100.00;101085.44;1723838;82;21041;-70
2021/11/18 05:08:38;;;;;;;40.03;15.97;;;;;;;-5.30;100.00;101088.08;1723549;83;21045;-70
2021/11/18 05:11:07;;;;;;;39.17;15.50;;;;;;;-5.29;100.00;101089.79;1723617;83;21081;-70
2021/11/18 05:13:34;;;;;;;41.17;15.60;;;;;;;-5.27;100.00;101094.59;1701368;83;21033;-70
2021/11/18 05:16:06;;;;;;;37.60;16.43;;;;;;;-5.26;100.00;101094.55;1723276;82;21056;-69
2021/11/18 05:18:33;;;;;;;35.63;15.83;;;;;;;-5.26;100.00;101093.23;1723766;83;21002;-70
2021/11/18 05:21:00;;;;;;;28.83;15.23;;;;;;;-5.25;100.00;101098.05;1723838;82;21045;-70
2021/11/18 05:23:27;;;;;;;35.70;15.30;;;;;;;-5.23;100.00;101098.39;1701411;83;21069;-69
2021/11/18 05:25:57;;;;;;;36.30;16.80;;;;;;;-5.19;100.00;101101.37;1723619;82;21551;-70
2021/11/18 05:28:24;;;;;;;31.37;15.30;;;;;;;-5.15;100.00;101094.23;1701347;83;21009;-70
2021/11/18 05:30:54;;;;;;;36.97;16.50;;;;;;;-5.12;100.00;101099.39;1723737;83;21037;-70
2021/11/18 05:33:23;;;;;;;31.47;15.63;;;;;;;-5.04;100.00;101099.19;1723501;83;21088;-70
2021/11/18 05:35:50;;;;;;;39.07;20.13;;;;;;;-4.91;100.00;101097.03;1723902;83;21076;-70
2021/11/18 05:38:19;;;;;;;33.40;17.87;;;;;;;-4.79;100.00;101094.87;1723439;83;21558;-70
2021/11/18 05:40:47;;;;;;;33.20;16.33;;;;;;;-4.65;100.00;101097.56;1701615;83;21069;-70
2021/11/18 05:43:16;;;;;;;30.20;15.73;;;;;;;-4.44;100.00;101103.94;1723378;83;21030;-70
2021/11/18 05:45:44;;;;;;;36.87;17.97;;;;;;;-4.23;100.00;101106.34;1723466;83;21056;-70
2021/11/18 05:48:15;;;;;;;40.00;18.80;;;;;;;-4.15;100.00;101104.75;1716053;83;21018;-68
2021/11/18 05:50:46;;;;;;;41.67;20.40;;;;;;;-4.13;100.00;101101.13;1718590;83;21014;-68
2021/11/18 05:53:15;;;;;;;35.35;18.23;;;;;;;-4.12;100.00;101102.88;1721858;83;21097;-65
2021/11/18 05:55:43;;;;;;;33.10;17.67;;;;;;;-4.13;100.00;101104.24;1717988;83;21037;-70
2021/11/18 05:58:10;;;;;;;38.43;17.00;;;;;;;-4.12;100.00;101103.34;1680514;84;21073;-70
2021/11/18 06:00:37;;;;;;;31.80;15.43;;;;;;;-4.10;100.00;101106.32;1720200;83;21104;-70
2021/11/18 06:03:04;;;;;;;30.23;15.47;;;;;;;-4.08;100.00;101107.13;1720951;83;20962;-69
2021/11/18 06:05:33;;;;;;;33.60;16.37;;;;;;;-4.05;100.00;101102.22;1699100;84;21070;-72
2021/11/18 06:08:00;;;;;;;35.47;15.00;;;;;;;-4.01;100.00;101099.87;1679639;84;21018;-71
2021/11/18 06:10:29;;;;;;;33.73;15.03;;;;;;;-3.94;100.00;101102.70;1678589;84;21081;-69
2021/11/18 06:12:56;;;;;;;33.77;15.43;;;;;;;-3.87;100.00;101104.69;1679194;83;21054;-71
2021/11/18 06:15:25;;;;;;;29.87;14.53;;;;;;;-3.85;100.00;101107.66;1647052;86;21139;-70
2021/11/18 06:17:54;;;;;;;27.40;14.47;;;;;;;-3.80;100.00;101095.63;1631167;87;21029;-70
2021/11/18 06:20:23;;;;;;;29.37;14.50;;;;;;;-3.75;100.00;101104.70;1631419;87;21054;-70
2021/11/18 06:22:50;;;;;;;36.87;15.70;;;;;;;-3.70;100.00;101098.36;1634892;87;21529;-70
2021/11/18 06:25:22;;;;;;;40.00;16.87;;;;;;;-3.67;100.00;101099.55;1636779;87;21062;-71
2021/11/18 06:27:49;;;;;;;34.97;16.73;;;;;;;-3.61;100.00;101102.45;1597333;88;21061;-70
2021/11/18 06:30:21;;;;;;;31.27;15.27;;;;;;;-3.55;100.00;101098.73;1620171;88;21515;-71
2021/11/18 06:32:48;;;;;;;69.53;39.70;;;;;;;-3.49;100.00;101093.20;1559835;91;21062;-69
2021/11/18 06:35:15;;;;;;;41.40;17.70;;;;;;;-3.43;100.00;101091.67;1560631;91;21091;-69
2021/11/18 06:37:43;;;;;;;43.43;22.43;;;;;;;-3.34;100.00;101093.12;1555217;91;21101;-70
2021/11/18 06:40:13;;;;;;;42.03;20.57;;;;;;;-3.21;100.00;101084.27;1536292;93;21141;-70
2021/11/18 06:42:42;;;;;;;56.73;22.98;;;;;;;-3.09;100.00;101088.63;1537122;93;21187;-70
2021/11/18 06:45:22;;;;;;;35.43;17.23;;;;;;;-2.96;100.00;101085.51;1537570;93;21163;-71
2021/11/18 06:47:51;;;;;;;43.87;17.73;;;;;;;-2.81;100.00;101086.72;1513596;95;21158;-70
2021/11/18 06:50:18;;;;;;;37.87;18.63;;;;;;;-2.65;100.00;101079.89;1537505;93;21597;-71
2021/11/18 06:52:46;;;;;;;38.50;16.93;;;;;;;-2.47;100.00;101084.05;1534709;92;21070;-70
2021/11/18 06:55:14;;;;;;;44.20;18.60;;;;;;;-2.31;100.00;101079.84;1539818;92;21030;-70
2021/11/18 06:57:41;;;;;;;45.43;18.17;;;;;;;-2.12;100.00;101083.45;1524299;93;21067;-73
2021/11/18 07:00:10;;;;;;;36.60;16.13;;;;;;;-1.95;100.00;101076.12;1524065;93;21139;-70
2021/11/18 07:02:40;;;;;;;37.30;17.97;;;;;;;-1.78;100.00;101078.50;1535154;93;21186;-71
2021/11/18 07:05:07;;;;;;;38.20;18.87;;;;;;;-1.64;100.00;101068.62;1535714;93;21101;-72
2021/11/18 07:07:35;;;;;;;46.43;27.47;;;;;;;-1.50;100.00;101068.86;1540362;93;21054;-70
2021/11/18 07:10:04;;;;;;;55.10;29.50;;;;;;;-1.34;100.00;101069.03;1537872;93;21049;-71
2021/11/18 07:12:33;;;;;;;52.57;27.90;;;;;;;-1.17;100.00;101070.45;1533650;92;21100;-71
2021/11/18 07:15:04;;;;;;;40.43;22.60;;;;;;;-1.00;100.00;101061.69;1551934;92;21127;-71
2021/11/18 07:17:33;;;;;;;44.73;22.70;;;;;;;-0.80;100.00;101048.81;1585959;89;21093;-72
2021/11/18 07:20:03;;;;;;;42.00;17.70;;;;;;;-0.57;100.00;101050.80;1584590;90;21045;-73
2021/11/18 07:22:30;;;;;;;32.63;17.97;;;;;;;-0.36;100.00;101046.23;1585243;90;21105;-71
2021/11/18 07:25:03;;;;;;;31.00;15.53;;;;;;;-0.12;100.00;101042.82;1575330;90;21127;-72
2021/11/18 07:27:31;;;;;;;41.60;15.70;;;;;;;0.06;100.00;101050.32;1579932;90;21571;-70
2021/11/18 07:29:58;;;;;;;37.50;15.87;;;;;;;0.22;100.00;101048.20;1578158;88;21501;-72
2021/11/18 07:32:25;;;;;;;33.57;14.03;;;;;;;0.41;100.00;101036.11;1583234;88;21131;-72
2021/11/18 07:34:52;;;;;;;29.43;13.03;;;;;;;0.61;100.00;101026.59;1593294;89;21021;-73
2021/11/18 07:37:24;;;;;;;30.70;13.57;;;;;;;0.80;100.00;101026.91;1539579;92;21071;-73
2021/11/18 07:39:51;;;;;;;31.27;14.07;;;;;;;0.94;100.00;101027.03;1552777;90;21032;-73
2021/11/18 07:42:18;;;;;;;29.93;13.90;;;;;;;1.13;100.00;101017.07;1565736;91;21190;-71
2021/11/18 07:45:02;;;;;;;29.80;13.33;;;;;;;1.39;100.00;101019.19;1510943;94;21631;-71
2021/11/18 07:47:43;;;;;;;28.40;15.40;;;;;;;1.64;100.00;101017.29;1437597;99;21171;-72
2021/11/18 07:50:13;;;;;;;34.03;16.60;;;;;;;1.88;100.00;101018.52;1423921;99;21134;-73
2021/11/18 07:52:40;;;;;;;27.87;13.20;;;;;;;2.12;100.00;101018.47;1424015;101;21210;-73
2021/11/18 07:55:09;;;;;;;29.43;12.43;;;;;;;2.37;100.00;101008.48;1430126;99;21095;-71
2021/11/18 07:57:39;;;;;;;27.03;12.27;;;;;;;2.60;100.00;101012.39;1437634;99;21169;-73
2021/11/18 08:00:09;;;;;;;25.90;12.03;;;;;;;2.78;100.00;101005.02;1433179;99;21148;-72
2021/11/18 08:02:40;;;;;;;32.40;13.13;;;;;;;2.91;100.00;101000.63;1412715;99;21171;-74
2021/11/18 08:05:08;;;;;;;23.33;12.23;;;;;;;3.06;100.00;100993.43;1424843;99;21703;-70
2021/11/18 08:07:35;;;;;;;32.93;13.67;;;;;;;3.14;100.00;100996.96;1418192;100;21151;-70
2021/11/18 08:10:06;;;;;;;28.10;12.83;;;;;;;3.19;100.00;100989.02;1419987;100;21233;-71
2021/11/18 08:12:36;;;;;;;24.77;11.80;;;;;;;3.39;100.00;100993.05;1420757;100;21210;-73
2021/11/18 08:15:06;;;;;;;26.37;12.00;;;;;;;3.60;100.00;100985.41;1429959;100;21119;-73
2021/11/18 08:17:33;;;;;;;23.97;10.87;;;;;;;3.79;100.00;100983.70;1416109;101;21179;-73
2021/11/18 08:20:03;;;;;;;20.87;10.37;;;;;;;3.93;100.00;100974.73;1450054;98;21194;-72
2021/11/18 08:22:30;;;;;;;29.30;11.50;;;;;;;4.10;100.00;100965.52;1514030;93;21648;-72
2021/11/18 08:24:57;;;;;;;21.27;10.00;;;;;;;4.28;100.00;100952.66;1527598;92;21012;-73
2021/11/18 08:27:26;;;;;;;26.33;11.10;;;;;;;4.46;100.00;100941.61;1528152;93;21106;-73
2021/11/18 08:29:53;;;;;;;31.27;17.67;;;;;;;4.63;100.00;100937.73;1498011;94;21089;-72
2021/11/18 08:32:20;;;;;;;28.67;15.67;;;;;;;4.70;100.00;100934.49;1502756;94;21211;-72
2021/11/18 08:34:51;;;;;;;32.07;15.63;;;;;;;4.72;100.00;100940.59;1607398;87;21126;-73
2021/11/18 08:37:19;;;;;;;27.80;12.70;;;;;;;4.71;100.00;100940.23;1625264;86;21087;-71
2021/11/18 08:39:48;;;;;;;25.40;13.13;;;;;;;4.75;100.00;100941.72;1626849;86;21121;-73
2021/11/18 08:42:18;;;;;;;32.13;13.30;;;;;;;4.80;100.00;100943.20;1630623;87;21065;-66
2021/11/18 08:44:47;;;;;;;34.67;13.90;;;;;;;4.83;100.00;100945.66;1626728;87;21002;-67
2021/11/18 08:47:16;;;;;;;25.80;11.07;;;;;;;4.92;100.00;100946.32;1627890;87;21566;-67
2021/11/18 08:49:43;;;;;;;29.07;14.23;;;;;;;4.92;100.00;100949.88;1629006;86;21043;-67
2021/11/18 08:52:14;;;;;;;30.83;12.73;;;;;;;4.89;100.00;100946.56;1627362;88;21552;-67
2021/11/18 08:54:47;;;;;;;28.17;11.80;;;;;;;4.88;100.00;100946.19;1622670;87;21065;-70
2021/11/18 08:57:14;;;;;;;22.07;10.50;;;;;;;4.98;100.00;100945.89;1626070;86;21705;-72
2021/11/18 09:00:00;;;;;;;25.80;10.53;;;;;;;5.06;100.00;100936.77;1627236;87;21560;-71
2021/11/18 09:02:28;;;;;;;26.13;10.40;;;;;;;5.15;100.00;100936.58;1629839;87;21122;-71
2021/11/18 09:04:55;;;;;;;20.63;9.57;;;;;;;5.24;100.00;100935.92;1625557;85;21191;-72
2021/11/18 09:07:23;;;;;;;22.80;10.00;;;;;;;5.25;100.00;100931.41;1655311;85;21510;-74
2021/11/18 09:09:50;;;;;;;23.30;9.60;;;;;;;5.32;100.00;100931.31;1703320;81;21564;-72
2021/11/18 09:12:18;;;;;;;25.57;10.47;;;;;;;5.41;100.00;100927.92;1729906;82;21025;-72
2021/11/18 09:14:45;;;;;;;25.00;11.00;;;;;;;5.58;100.00;100925.78;1695856;83;21597;-71
2021/11/18 09:17:13;;;;;;;22.70;10.20;;;;;;;5.68;100.00;100920.97;1686756;83;21025;-71
2021/11/18 09:19:43;;;;;;;20.50;9.07;;;;;;;5.71;100.00;100917.17;1699830;83;21044;-72
2021/11/18 09:22:12;;;;;;;26.90;11.07;;;;;;;5.68;100.00;100914.72;1731610;83;20962;-71
2021/11/18 09:24:47;;;;;;;21.87;9.67;;;;;;;5.73;100.00;100912.54;1730354;81;20997;-72
2021/11/18 09:27:19;;;;;;;27.00;12.20;;;;;;;5.73;96.74;100904.48;1668102;84;22316;-72
2021/11/18 09:29:47;;;;;;;29.23;13.45;;;;;;;5.63;98.72;100899.45;1669208;84;21132;-71
2021/11/18 09:32:28;;;;;;;27.80;11.90;;;;;;;5.70;99.06;100898.89;1668732;84;21032;-72
2021/11/18 09:34:57;;;;;;;34.17;15.43;;;;;;;5.76;96.51;100893.52;1665497;84;21210;-70
2021/11/18 09:37:24;;;;;;;26.53;13.03;;;;;;;5.76;97.51;100895.36;1668616;84;21026;-71
2021/11/18 09:39:52;;;;;;;25.63;12.67;;;;;;;5.86;99.50;100884.25;1659569;86;20984;-72
2021/11/18 09:42:24;;;;;;;35.50;18.30;;;;;;;5.97;99.47;100885.66;1659205;86;21111;-75
2021/11/18 09:45:16;;;;;;;28.83;15.87;;;;;;;5.98;98.14;100876.61;1669631;84;20953;-73
2021/11/18 09:48:08;;;;;;;33.73;18.10;;;;;;;5.97;97.80;100874.92;1617941;88;21116;-72
2021/11/18 09:51:13;;;;;;;29.80;15.30;;;;;;;5.93;98.21;100865.84;1575005;90;21120;-72
2021/11/18 09:54:03;;;;;;;27.77;14.30;;;;;;;5.88;99.86;100867.07;1506394;94;21104;-72
2021/11/18 09:56:46;;;;;;;25.17;11.50;;;;;;;5.82;99.78;100867.53;1505052;93;21210;-72
2021/11/18 09:59:30;;;;;;;26.77;12.37;;;;;;;5.79;100.00;100861.55;1505573;94;21017;-73
2021/11/18 10:02:09;;;;;;;33.93;13.60;;;;;;;5.86;100.00;100856.06;1447389;97;21093;-72
2021/11/18 10:04:57;;;;;;;30.20;12.63;;;;;;;5.89;100.00;100859.37;1416628;100;21119;-74
2021/11/18 10:07:39;;;;;;;26.60;12.23;;;;;;;5.81;100.00;100853.77;1422289;100;21248;-72
2021/11/18 10:10:35;;;;;;;26.43;12.67;;;;;;;5.84;100.00;100843.27;1415151;100;22814;-70
2021/11/18 10:13:31;;;;;;;30.57;14.93;;;;;;;5.89;100.00;100845.09;1421606;99;21620;-69
2021/11/18 10:16:18;;;;;;;31.90;14.57;;;;;;;5.92;100.00;100838.66;1424122;99;21198;-69
2021/11/18 10:18:51;;;;;;;33.20;14.27;;;;;;;5.86;100.00;100827.89;1421713;99;21736;-71
2021/11/18 10:21:29;;;;;;;21.93;9.97;;;;;;;5.86;100.00;100833.25;1416640;101;21629;-70
2021/11/18 10:24:01;;;;;;;30.23;12.33;;;;;;;6.05;100.00;100821.95;1416389;100;21701;-72
2021/11/18 10:26:35;;;;;;;38.73;17.50;;;;;;;5.96;92.96;100825.38;1423280;99;21132;-72
2021/11/18 10:29:17;;;;;;;33.33;16.50;;;;;;;6.02;91.99;100825.75;1439711;97;21725;-72
2021/11/18 10:31:58;;;;;;;25.13;12.53;;;;;;;6.15;88.37;100822.08;1531352;92;21156;-72
2021/11/18 10:34:31;;;;;;;33.80;11.73;;;;;;;6.19;83.22;100819.01;1532272;92;21147;-73
2021/11/18 10:37:12;;;;;;;22.03;11.10;;;;;;;6.15;84.81;100813.53;1532195;92;21190;-74
2021/11/18 10:39:54;;;;;;;20.17;9.60;;;;;;;6.22;80.07;100812.05;1570849;88;21000;-72
2021/11/18 10:42:44;;;;;;;26.83;10.10;;;;;;;6.23;77.83;100814.24;1610285;86;21187;-70
2021/11/18 10:45:29;;;;;;;17.40;8.73;;;;;;;6.32;77.23;100815.33;1544864;90;21065;-72
2021/11/18 10:48:20;;;;;;;18.13;8.43;;;;;;;6.40;66.08;100803.48;1504941;93;21104;-73
2021/11/18 10:51:08;;;;;;;20.00;9.83;;;;;;;6.04;61.54;100804.15;1589976;89;21040;-73
2021/11/18 10:53:49;;;;;;;20.83;8.97;;;;;;;5.89;61.16;100790.92;1613630;87;21544;-74
2021/11/18 10:56:26;;;;;;;21.57;9.00;;;;;;;5.89;63.67;100790.07;1599998;88;21029;-71
2021/11/18 10:59:07;;;;;;;26.20;9.97;;;;;;;6.03;66.52;100791.69;1578535;88;21137;-72
2021/11/18 11:01:38;;;;;;;23.70;9.20;;;;;;;6.19;66.76;100791.30;1600482;88;22512;-68
2021/11/18 11:04:08;;;;;;;19.23;8.60;;;;;;;6.30;64.27;100783.72;1590537;89;21117;-68
2021/11/18 11:06:49;;;;;;;16.83;8.40;;;;;;;6.38;65.75;100790.17;1510733;94;21147;-71
2021/11/18 11:09:19;;;;;;;24.80;10.80;;;;;;;6.50;65.12;100780.73;1519244;92;21157;-72
2021/11/18 11:12:03;;;;;;;30.50;16.70;;;;;;;6.64;63.21;100772.41;1543517;92;21161;-74
2021/11/18 11:15:08;;;;;;;37.90;19.23;;;;;;;6.75;63.04;100767.47;1566968;91;21117;-73
2021/11/18 11:18:02;;;;;;;27.83;16.90;;;;;;;6.79;60.36;100767.56;1539693;92;21407;-73
2021/11/18 11:20:48;;;;;;;21.90;11.87;;;;;;;6.65;56.59;100762.84;1543737;92;21014;-73
2021/11/18 11:23:53;;;;;;;18.43;9.07;;;;;;;6.60;57.53;100759.69;1525419;93;21160;-73